createdAt,value
2019-05-01T00:01:13.282Z,37.90
2019-05-01T00:03:44.595Z,38.20
2019-05-01T00:06:16.072Z,39.43
2019-05-01T00:08:45.801Z,38.07
2019-05-01T00:11:16.950Z,38.80
2019-05-01T00:13:46.584Z,35.90
2019-05-01T00:16:16.444Z,37.20
2019-05-01T00:18:46.110Z,39.17
2019-05-01T00:21:15.841Z,38.30
2019-05-01T00:23:45.449Z,39.20
2019-05-01T00:26:15.176Z,37.20
2019-05-01T00:28:44.870Z,38.30
2019-05-01T00:31:14.624Z,38.43
2019-05-01T00:33:44.290Z,40.03
2019-05-01T00:36:14.197Z,38.03
2019-05-01T00:38:43.855Z,38.83
2019-05-01T00:41:13.433Z,40.43
2019-05-01T00:43:43.220Z,41.30
2019-05-01T00:46:13.073Z,40.33
2019-05-01T00:48:42.690Z,40.60
2019-05-01T00:51:12.392Z,39.93
2019-05-01T00:53:42.030Z,38.17
2019-05-01T00:56:22.218Z,38.97
2019-05-01T00:58:53.631Z,39.23
2019-05-01T01:01:25.779Z,38.10
2019-05-01T01:03:55.464Z,40.63
2019-05-01T01:06:25.161Z,39.63
2019-05-01T01:08:54.943Z,39.77
2019-05-01T01:11:24.617Z,40.10
2019-05-01T01:13:54.262Z,39.00
2019-05-01T01:16:23.983Z,39.83
2019-05-01T01:18:53.673Z,39.53
2019-05-01T01:21:23.508Z,41.43
2019-05-01T01:23:53.161Z,39.73
2019-05-01T01:26:22.876Z,40.37
2019-05-01T01:28:52.662Z,41.57
2019-05-01T01:31:22.448Z,40.63
2019-05-01T01:33:52.119Z,38.43
2019-05-01T01:36:21.724Z,41.53
2019-05-01T01:38:51.314Z,42.00
2019-05-01T01:41:21.161Z,40.23
2019-05-01T01:43:59.559Z,40.53
2019-05-01T01:46:33.565Z,40.93
2019-05-01T01:49:03.403Z,40.57
2019-05-01T01:51:33.143Z,40.87
2019-05-01T01:54:03.269Z,38.97
2019-05-01T01:56:33.006Z,41.63
2019-05-01T01:59:02.693Z,41.87
2019-05-01T02:01:42.760Z,40.83
2019-05-01T02:04:18.205Z,43.10
2019-05-01T02:06:49.762Z,43.60
2019-05-01T02:09:19.572Z,42.90
2019-05-01T02:11:50.319Z,45.37
2019-05-01T02:14:20.410Z,42.57
2019-05-01T02:16:50.201Z,43.50
2019-05-01T02:19:19.785Z,42.57
2019-05-01T02:21:49.694Z,44.20
2019-05-01T02:24:19.256Z,42.07
2019-05-01T02:26:56.399Z,43.47
2019-05-01T02:29:41.891Z,43.80
2019-05-01T02:32:11.787Z,41.23
2019-05-01T02:34:42.739Z,40.93
2019-05-01T02:37:13.696Z,43.60
2019-05-01T02:39:45.009Z,40.30
2019-05-01T02:42:15.735Z,42.03
2019-05-01T02:44:48.936Z,40.90
2019-05-01T02:47:27.531Z,39.77
2019-05-01T02:50:07.595Z,39.57
2019-05-01T02:52:38.448Z,39.57
2019-05-01T02:55:11.985Z,39.87
2019-05-01T02:57:42.528Z,39.00
2019-05-01T03:00:12.706Z,39.10
2019-05-01T03:02:42.956Z,39.60
2019-05-01T03:05:12.864Z,40.53
2019-05-01T03:07:43.295Z,41.50
2019-05-01T03:10:13.409Z,40.67
2019-05-01T03:12:46.611Z,39.43
2019-05-01T03:15:17.715Z,40.40
2019-05-01T03:17:50.196Z,39.37
2019-05-01T03:20:27.733Z,38.97
2019-05-01T03:23:15.539Z,39.23
2019-05-01T03:25:45.139Z,38.00
2019-05-01T03:28:15.157Z,37.33
2019-05-01T03:30:44.966Z,37.77
2019-05-01T03:33:15.074Z,38.37
2019-05-01T03:35:44.907Z,36.63
2019-05-01T03:38:14.973Z,37.50
2019-05-01T03:40:44.654Z,37.77
2019-05-01T03:43:14.416Z,37.87
2019-05-01T03:45:45.140Z,39.00
2019-05-01T03:48:14.889Z,36.17
2019-05-01T03:50:47.117Z,38.77
2019-05-01T03:53:16.338Z,39.33
2019-05-01T03:55:46.890Z,39.37
2019-05-01T03:58:16.623Z,37.70
2019-05-01T04:00:46.389Z,39.03
2019-05-01T04:03:30.242Z,40.23
2019-05-01T04:06:00.212Z,39.57
2019-05-01T04:08:30.048Z,41.23
2019-05-01T04:10:59.921Z,38.27
2019-05-01T04:13:29.637Z,40.27
2019-05-01T04:15:59.592Z,39.03
2019-05-01T04:18:29.758Z,40.27
2019-05-01T04:21:00.006Z,40.13
2019-05-01T04:23:29.934Z,41.33
2019-05-01T04:25:59.578Z,41.83
2019-05-01T04:28:40.529Z,40.23
2019-05-01T04:31:13.028Z,41.03
2019-05-01T04:33:44.502Z,42.23
2019-05-01T04:36:19.401Z,40.17
2019-05-01T04:38:49.429Z,40.83
2019-05-01T04:41:19.627Z,41.73
2019-05-01T04:43:49.371Z,42.27
2019-05-01T04:46:19.483Z,42.07
2019-05-01T04:48:49.688Z,40.97
2019-05-01T04:51:19.925Z,41.10
2019-05-01T04:53:49.591Z,36.03
2019-05-01T04:56:19.567Z,41.43
2019-05-01T04:58:49.509Z,41.70
2019-05-01T05:01:19.372Z,39.77
2019-05-01T05:03:49.044Z,39.67
2019-05-01T05:06:19.091Z,40.37
2019-05-01T05:08:49.096Z,38.17
2019-05-01T05:11:20.468Z,39.00
2019-05-01T05:14:07.770Z,39.27
2019-05-01T05:16:45.007Z,36.97
2019-05-01T05:19:15.423Z,39.23
2019-05-01T05:21:45.292Z,39.57
2019-05-01T05:24:17.441Z,39.00
2019-05-01T05:26:47.627Z,39.60
2019-05-01T05:29:19.830Z,38.80
2019-05-01T05:31:50.472Z,38.87
2019-05-01T05:34:21.715Z,39.30
2019-05-01T05:36:54.219Z,39.83
2019-05-01T05:39:32.355Z,37.47
2019-05-01T05:42:04.858Z,40.23
2019-05-01T05:44:35.975Z,39.17
2019-05-01T05:47:06.104Z,38.73
2019-05-01T05:49:35.923Z,40.43
2019-05-01T05:52:23.247Z,39.90
2019-05-01T05:54:57.822Z,39.23
2019-05-01T05:57:33.873Z,38.97
2019-05-01T06:00:21.428Z,39.77
2019-05-01T06:02:57.661Z,37.67
2019-05-01T06:05:35.015Z,37.97
2019-05-01T06:08:10.729Z,40.17
2019-05-01T06:11:03.315Z,39.63
2019-05-01T06:13:52.614Z,40.17
2019-05-01T06:16:23.277Z,42.40
2019-05-01T06:18:54.778Z,40.77
2019-05-01T06:21:26.097Z,40.30
2019-05-01T06:24:05.951Z,38.83
2019-05-01T06:26:31.964Z,37.03
2019-05-01T06:29:04.530Z,36.23
2019-05-01T06:31:35.242Z,34.60
2019-05-01T06:34:05.598Z,34.47
2019-05-01T06:36:35.516Z,34.30
2019-05-01T06:39:11.818Z,32.77
2019-05-01T06:41:42.850Z,35.40
2019-05-01T06:44:20.757Z,32.27
2019-05-01T06:46:52.640Z,34.33
2019-05-01T06:49:24.197Z,34.90
2019-05-01T06:51:58.120Z,35.20
2019-05-01T06:54:30.374Z,34.47
2019-05-01T06:57:01.875Z,34.80
2019-05-01T06:59:33.414Z,32.47
2019-05-01T07:02:04.150Z,33.03
2019-05-01T07:04:38.122Z,32.43
2019-05-01T07:07:08.233Z,32.97
2019-05-01T07:09:38.950Z,31.73
2019-05-01T07:12:10.482Z,32.03
2019-05-01T07:14:40.111Z,31.87
2019-05-01T07:17:13.556Z,32.57
2019-05-01T07:19:55.248Z,31.67
2019-05-01T07:22:24.968Z,29.80
2019-05-01T07:24:58.945Z,34.27
2019-05-01T07:27:26.817Z,33.20
2019-05-01T07:30:01.005Z,32.77
2019-05-01T07:32:31.052Z,32.63
2019-05-01T07:35:01.908Z,34.73
2019-05-01T07:37:32.662Z,36.80
2019-05-01T07:40:02.464Z,37.27
2019-05-01T07:42:33.821Z,40.47
2019-05-01T07:45:13.809Z,40.63
2019-05-01T07:47:45.632Z,43.63
2019-05-01T07:50:17.690Z,46.10
2019-05-01T07:52:52.186Z,47.33
2019-05-01T07:55:22.026Z,45.03
2019-05-01T07:57:51.718Z,43.70
2019-05-01T08:00:42.666Z,42.50
2019-05-01T08:03:12.402Z,39.03
2019-05-01T08:05:45.440Z,39.70
2019-05-01T08:08:13.779Z,38.07
2019-05-01T08:10:43.487Z,40.00
2019-05-01T08:13:13.141Z,39.53
2019-05-01T08:15:42.999Z,36.17
2019-05-01T08:18:14.304Z,35.73
2019-05-01T08:20:50.438Z,36.00
2019-05-01T08:23:19.823Z,34.17
2019-05-01T08:25:49.543Z,32.17
2019-05-01T08:28:27.764Z,32.77
2019-05-01T08:30:56.844Z,34.53
2019-05-01T08:33:44.827Z,35.30
2019-05-01T08:36:15.811Z,33.20
2019-05-01T08:38:45.424Z,34.67
2019-05-01T08:41:15.146Z,32.37
2019-05-01T08:43:48.902Z,34.57
2019-05-01T08:46:25.577Z,35.23
2019-05-01T08:49:06.861Z,35.00
2019-05-01T08:51:37.529Z,36.13
2019-05-01T08:54:07.285Z,37.63
2019-05-01T08:56:36.907Z,38.63
2019-05-01T08:59:06.820Z,40.60
2019-05-01T09:01:36.569Z,39.17
2019-05-01T09:04:12.806Z,40.60
2019-05-01T09:06:39.364Z,41.90
2019-05-01T09:09:10.145Z,43.67
2019-05-01T09:11:39.920Z,41.77
2019-05-01T09:14:09.651Z,41.53
2019-05-01T09:16:39.366Z,41.97
2019-05-01T09:19:09.136Z,42.70
2019-05-01T09:21:39.528Z,44.30
2019-05-01T09:24:09.367Z,39.00
2019-05-01T09:26:55.826Z,42.90
2019-05-01T09:29:29.921Z,42.33
2019-05-01T09:31:59.694Z,42.17
2019-05-01T09:34:29.572Z,42.23
2019-05-01T09:36:59.418Z,39.53
2019-05-01T09:39:29.731Z,40.70
2019-05-01T09:41:59.499Z,40.50
2019-05-01T09:44:29.249Z,38.23
2019-05-01T09:46:59.318Z,38.23
2019-05-01T09:49:29.530Z,36.20
2019-05-01T09:52:00.768Z,38.23
2019-05-01T09:54:43.035Z,39.37
2019-05-01T09:57:10.871Z,35.73
2019-05-01T09:59:40.926Z,37.20
2019-05-01T10:02:11.271Z,37.80
2019-05-01T10:04:41.071Z,36.57
2019-05-01T10:07:10.861Z,37.13
2019-05-01T10:09:40.747Z,36.37
2019-05-01T10:12:12.113Z,37.47
2019-05-01T10:14:41.802Z,37.13
2019-05-01T10:17:13.497Z,39.90
2019-05-01T10:19:43.105Z,39.17
2019-05-01T10:22:12.699Z,37.70
2019-05-01T10:24:42.418Z,39.33
2019-05-01T10:27:13.722Z,39.33
2019-05-01T10:30:02.812Z,39.53
2019-05-01T10:32:52.799Z,39.17
2019-05-01T10:35:42.439Z,38.63
2019-05-01T10:38:09.360Z,42.30
2019-05-01T10:40:37.263Z,39.87
2019-05-01T10:43:07.089Z,39.40
2019-05-01T10:45:36.850Z,39.13
2019-05-01T10:48:06.623Z,39.10
2019-05-01T10:50:36.243Z,39.77
2019-05-01T10:53:05.891Z,42.97
2019-05-01T10:55:35.647Z,40.53
2019-05-01T10:58:05.330Z,42.13
2019-05-01T11:00:36.669Z,41.30
2019-05-01T11:03:06.565Z,38.97
2019-05-01T11:05:36.244Z,39.00
2019-05-01T11:08:06.492Z,39.50
2019-05-01T11:10:36.178Z,39.43
2019-05-01T11:13:07.748Z,41.13
2019-05-01T11:15:37.553Z,40.07
2019-05-01T11:18:07.292Z,40.93
2019-05-01T11:20:36.932Z,39.97
2019-05-01T11:23:07.147Z,42.20
2019-05-01T11:25:38.465Z,39.63
2019-05-01T11:28:08.259Z,39.27
2019-05-01T11:30:38.285Z,38.80
2019-05-01T11:33:18.405Z,39.00
2019-05-01T11:36:09.569Z,39.33
2019-05-01T11:38:42.809Z,41.37
2019-05-01T11:41:14.150Z,39.27
2019-05-01T11:43:43.971Z,36.57
2019-05-01T11:46:13.758Z,36.83
2019-05-01T11:48:44.655Z,36.37
2019-05-01T11:51:14.724Z,41.57
2019-05-01T11:53:44.344Z,36.43
2019-05-01T11:56:14.153Z,35.53
2019-05-01T11:58:43.769Z,37.60
2019-05-01T12:01:15.209Z,36.57
2019-05-01T12:03:44.930Z,34.97
2019-05-01T12:06:22.605Z,36.40
2019-05-01T12:08:46.261Z,35.03
2019-05-01T12:11:17.575Z,35.33
2019-05-01T12:13:47.417Z,34.40
2019-05-01T12:16:33.553Z,36.33
2019-05-01T12:19:05.297Z,36.37
2019-05-01T12:21:34.952Z,35.07
2019-05-01T12:24:04.864Z,34.50
2019-05-01T12:26:34.422Z,35.30
2019-05-01T12:29:04.249Z,35.23
2019-05-01T12:31:33.817Z,34.33
2019-05-01T12:34:03.577Z,34.33
2019-05-01T12:36:36.563Z,33.73
2019-05-01T12:39:08.937Z,36.40
2019-05-01T12:41:43.348Z,31.97
2019-05-01T12:44:13.303Z,34.27
2019-05-01T12:46:42.846Z,35.57
2019-05-01T12:49:15.770Z,34.03
2019-05-01T12:51:46.516Z,36.40
2019-05-01T12:54:26.775Z,33.80
2019-05-01T12:57:03.142Z,32.43
2019-05-01T12:59:32.848Z,34.40
2019-05-01T13:02:02.446Z,33.93
2019-05-01T13:04:32.551Z,35.17
2019-05-01T13:07:02.495Z,34.20
2019-05-01T13:09:32.159Z,34.20
2019-05-01T13:12:02.172Z,34.07
2019-05-01T13:14:31.991Z,34.53
2019-05-01T13:17:01.669Z,35.13
2019-05-01T13:19:31.382Z,35.63
2019-05-01T13:22:01.093Z,34.33
2019-05-01T13:24:30.764Z,34.97
2019-05-01T13:27:07.923Z,34.13
2019-05-01T13:29:39.243Z,33.57
2019-05-01T13:32:17.353Z,32.17
2019-05-01T13:34:47.148Z,32.20
2019-05-01T13:37:16.832Z,34.40
2019-05-01T13:39:46.592Z,35.33
2019-05-01T13:42:16.273Z,34.80
2019-05-01T13:44:46.384Z,34.30
2019-05-01T13:47:16.243Z,33.73
2019-05-01T13:49:45.913Z,35.30
2019-05-01T13:52:15.608Z,32.83
2019-05-01T13:54:45.170Z,32.87
2019-05-01T13:57:14.997Z,32.60
2019-05-01T13:59:44.794Z,31.70
2019-05-01T14:02:14.583Z,32.50
2019-05-01T14:04:44.146Z,33.43
2019-05-01T14:07:16.737Z,34.97
2019-05-01T14:09:45.969Z,33.57
2019-05-01T14:12:15.666Z,33.13
2019-05-01T14:14:45.449Z,34.33
2019-05-01T14:17:15.160Z,32.30
2019-05-01T14:19:46.984Z,32.97
2019-05-01T14:22:34.111Z,34.20
2019-05-01T14:25:11.523Z,31.43
2019-05-01T14:27:41.307Z,32.63
2019-05-01T14:30:11.604Z,29.70
2019-05-01T14:32:41.293Z,30.23
2019-05-01T14:35:12.839Z,32.13
2019-05-01T14:37:42.683Z,33.43
2019-05-01T14:40:12.981Z,31.43
2019-05-01T14:42:42.554Z,32.40
2019-05-01T14:45:12.685Z,32.37
2019-05-01T14:47:42.478Z,33.43
2019-05-01T14:50:12.582Z,34.63
2019-05-01T14:52:42.338Z,34.77
2019-05-01T14:55:12.453Z,32.50
2019-05-01T14:57:42.157Z,33.73
2019-05-01T15:00:12.884Z,33.33
2019-05-01T15:02:42.803Z,32.90
2019-05-01T15:05:14.244Z,32.47
2019-05-01T15:07:44.296Z,31.67
2019-05-01T15:10:14.167Z,31.50
2019-05-01T15:12:45.390Z,33.23
2019-05-01T15:15:22.808Z,33.10
2019-05-01T15:17:54.067Z,32.60
2019-05-01T15:20:23.874Z,32.50
2019-05-01T15:22:53.563Z,31.07
2019-05-01T15:25:23.247Z,30.37
2019-05-01T15:27:52.986Z,32.63
2019-05-01T15:30:23.097Z,30.83
2019-05-01T15:32:54.853Z,29.20
2019-05-01T15:35:24.423Z,29.97
2019-05-01T15:37:56.878Z,28.93
2019-05-01T15:40:30.133Z,30.40
2019-05-01T15:43:01.443Z,30.97
2019-05-01T15:45:31.232Z,30.37
2019-05-01T15:48:01.068Z,30.10
2019-05-01T15:50:30.928Z,32.03
2019-05-01T15:53:00.518Z,29.57
2019-05-01T15:55:30.371Z,31.13
2019-05-01T15:58:00.077Z,28.23
2019-05-01T16:00:29.902Z,30.83
2019-05-01T16:02:59.481Z,31.03
2019-05-01T16:05:29.353Z,28.17
2019-05-01T16:08:09.171Z,29.33
2019-05-01T16:10:47.137Z,27.97
2019-05-01T16:13:16.818Z,28.77
2019-05-01T16:15:46.656Z,29.33
2019-05-01T16:18:16.287Z,26.90
2019-05-01T16:20:46.003Z,28.23
2019-05-01T16:23:16.171Z,27.90
2019-05-01T16:25:45.984Z,27.53
2019-05-01T16:28:16.035Z,31.23
2019-05-01T16:30:45.880Z,32.83
2019-05-01T16:33:15.727Z,29.83
2019-05-01T16:35:45.781Z,26.93
2019-05-01T16:38:23.103Z,27.07
2019-05-01T16:40:59.232Z,27.00
2019-05-01T16:43:28.906Z,27.43
2019-05-01T16:45:59.713Z,27.43
2019-05-01T16:48:29.369Z,27.43
2019-05-01T16:50:59.019Z,27.97
2019-05-01T16:53:28.745Z,27.33
2019-05-01T16:55:58.514Z,27.17
2019-05-01T16:58:28.292Z,26.93
2019-05-01T17:01:04.951Z,27.07
2019-05-01T17:03:40.224Z,27.30
2019-05-01T17:06:18.396Z,27.50
2019-05-01T17:08:55.574Z,27.37
2019-05-01T17:11:27.052Z,27.83
2019-05-01T17:13:57.137Z,27.97
2019-05-01T17:16:26.922Z,29.00
2019-05-01T17:18:56.806Z,26.77
2019-05-01T17:21:27.073Z,29.47
2019-05-01T17:23:57.097Z,27.13
2019-05-01T17:26:26.807Z,26.87
2019-05-01T17:28:56.483Z,29.43
2019-05-01T17:31:27.771Z,28.93
2019-05-01T17:33:57.578Z,27.93
2019-05-01T17:36:27.408Z,29.07
2019-05-01T17:38:57.207Z,29.17
2019-05-01T17:41:28.501Z,28.67
2019-05-01T17:43:58.547Z,28.00
2019-05-01T17:46:28.211Z,28.40
2019-05-01T17:48:58.046Z,28.10
2019-05-01T17:51:27.736Z,29.23
2019-05-01T17:53:57.592Z,28.90
2019-05-01T17:56:28.692Z,27.93
2019-05-01T17:58:59.519Z,27.57
2019-05-01T18:01:46.975Z,28.43
2019-05-01T18:04:18.904Z,28.50
2019-05-01T18:06:50.363Z,28.17
2019-05-01T18:09:20.174Z,29.00
2019-05-01T18:11:52.379Z,30.03
2019-05-01T18:14:21.300Z,29.30
2019-05-01T18:16:51.392Z,29.67
2019-05-01T18:19:21.206Z,30.07
2019-05-01T18:21:55.325Z,30.03
2019-05-01T18:24:44.784Z,29.10
2019-05-01T18:27:32.563Z,28.77
2019-05-01T18:30:03.905Z,29.77
2019-05-01T18:32:46.527Z,29.57
2019-05-01T18:35:14.061Z,30.50
2019-05-01T18:37:46.502Z,29.67
2019-05-01T18:40:27.223Z,30.30
2019-05-01T18:42:56.994Z,30.67
2019-05-01T18:45:48.764Z,29.73
2019-05-01T18:48:19.565Z,31.60
2019-05-01T18:50:54.973Z,31.23
2019-05-01T18:53:21.868Z,30.40
2019-05-01T18:55:51.786Z,30.33
2019-05-01T18:58:22.105Z,30.37
2019-05-01T19:00:52.003Z,30.17
2019-05-01T19:03:22.596Z,31.20
2019-05-01T19:05:52.628Z,32.27
2019-05-01T19:08:22.783Z,32.07
2019-05-01T19:10:53.044Z,31.93
2019-05-01T19:13:23.281Z,32.27
2019-05-01T19:15:53.442Z,31.40
2019-05-01T19:18:23.609Z,32.30
2019-05-01T19:20:59.729Z,33.70
2019-05-01T19:23:28.057Z,32.83
2019-05-01T19:26:03.555Z,32.23
2019-05-01T19:28:28.423Z,33.40
2019-05-01T19:30:58.468Z,32.03
2019-05-01T19:33:28.331Z,33.87
2019-05-01T19:36:02.695Z,33.20
2019-05-01T19:38:34.922Z,33.00
2019-05-01T19:41:06.407Z,33.30
2019-05-01T19:43:35.752Z,33.57
2019-05-01T19:46:05.694Z,33.37
2019-05-01T19:48:35.512Z,34.63
2019-05-01T19:51:05.578Z,33.93
2019-05-01T19:53:35.313Z,33.97
2019-05-01T19:56:05.327Z,33.67
2019-05-01T19:58:35.227Z,34.03
2019-05-01T20:01:05.752Z,34.50
2019-05-01T20:03:36.862Z,34.63
2019-05-01T20:06:08.227Z,35.43
2019-05-01T20:08:38.259Z,34.80
2019-05-01T20:11:09.774Z,35.43
2019-05-01T20:13:39.636Z,35.03
2019-05-01T20:16:10.276Z,37.07
2019-05-01T20:18:40.013Z,35.37
2019-05-01T20:21:09.990Z,35.30
2019-05-01T20:23:39.848Z,34.80
2019-05-01T20:26:09.659Z,34.77
2019-05-01T20:28:39.854Z,34.63
2019-05-01T20:31:09.741Z,35.10
2019-05-01T20:33:44.194Z,33.80
2019-05-01T20:36:10.994Z,36.10
2019-05-01T20:38:40.731Z,33.70
2019-05-01T20:41:16.035Z,35.13
2019-05-01T20:43:43.611Z,35.10
2019-05-01T20:46:13.725Z,34.50
2019-05-01T20:48:43.436Z,33.83
2019-05-01T20:51:13.335Z,34.63
2019-05-01T20:53:42.990Z,33.60
2019-05-01T20:56:20.368Z,33.93
2019-05-01T20:58:50.008Z,31.97
2019-05-01T21:01:24.006Z,31.53
2019-05-01T21:03:56.222Z,31.53
2019-05-01T21:06:28.572Z,32.37
2019-05-01T21:09:00.065Z,30.87
2019-05-01T21:11:34.468Z,29.83
2019-05-01T21:14:19.717Z,29.10
2019-05-01T21:16:38.092Z,30.40
2019-05-01T21:19:08.661Z,30.93
2019-05-01T21:21:38.338Z,31.23
2019-05-01T21:24:08.138Z,29.70
2019-05-01T21:26:37.817Z,31.13
2019-05-01T21:29:07.575Z,29.30
2019-05-01T21:31:37.394Z,28.73
2019-05-01T21:34:06.978Z,30.83
2019-05-01T21:36:36.779Z,29.63
2019-05-01T21:39:07.353Z,27.13
2019-05-01T21:41:36.991Z,30.07
2019-05-01T21:44:07.012Z,29.83
2019-05-01T21:46:39.188Z,29.53
2019-05-01T21:49:08.432Z,29.33
2019-05-01T21:51:42.331Z,30.13
2019-05-01T21:54:09.843Z,29.13
2019-05-01T21:56:41.433Z,28.73
2019-05-01T21:59:11.372Z,28.87
2019-05-01T22:01:41.149Z,30.10
2019-05-01T22:04:11.221Z,28.80
2019-05-01T22:06:40.958Z,29.40
2019-05-01T22:09:15.282Z,29.57
2019-05-01T22:11:49.280Z,28.63
2019-05-01T22:14:40.286Z,29.33
2019-05-01T22:17:15.010Z,27.43
2019-05-01T22:20:06.784Z,26.97
2019-05-01T22:22:38.783Z,28.30
2019-05-01T22:25:12.688Z,29.37
2019-05-01T22:27:47.307Z,28.53
2019-05-01T22:30:25.490Z,28.27
2019-05-01T22:32:56.817Z,27.07
2019-05-01T22:35:28.026Z,28.10
2019-05-01T22:37:57.796Z,26.90
2019-05-01T22:40:44.732Z,29.70
2019-05-01T22:43:14.824Z,28.30
2019-05-01T22:45:44.534Z,28.33
2019-05-01T22:48:14.794Z,29.77
2019-05-01T22:50:44.916Z,30.10
2019-05-01T22:53:15.001Z,28.47
2019-05-01T22:55:44.864Z,28.97
2019-05-01T22:58:14.538Z,29.93
2019-05-01T23:00:54.682Z,29.20
2019-05-01T23:03:41.131Z,28.93
2019-05-01T23:06:12.662Z,29.47
2019-05-01T23:08:42.606Z,29.67
2019-05-01T23:11:19.835Z,28.30
2019-05-01T23:13:44.227Z,28.60
2019-05-01T23:16:15.139Z,27.13
2019-05-01T23:18:47.126Z,26.97
2019-05-01T23:21:16.504Z,26.93
2019-05-01T23:23:46.390Z,29.37
2019-05-01T23:26:16.557Z,29.00
2019-05-01T23:28:46.597Z,29.20
2019-05-01T23:31:16.449Z,27.57
2019-05-01T23:33:50.552Z,27.43
2019-05-01T23:36:23.831Z,27.40
2019-05-01T23:38:48.930Z,27.37
2019-05-01T23:41:18.621Z,28.47
2019-05-01T23:43:48.356Z,27.97
2019-05-01T23:46:18.063Z,28.27
2019-05-01T23:48:47.680Z,28.23
2019-05-01T23:51:17.478Z,29.17
2019-05-01T23:53:48.196Z,28.83
2019-05-01T23:56:18.839Z,27.87
2019-05-01T23:58:48.418Z,26.70
